sensor_id;sensor_type;location;lat;lon;timestamp;pressure;altitude;pressure_sealevel;temperature
72278;BMP280;61204;49.980;8.358;2023-02-01T00:00:04;101062.56;;;6.21
72278;BMP280;61204;49.980;8.358;2023-02-01T00:02:31;101073.25;;;6.19
72278;BMP280;61204;49.980;8.358;2023-02-01T00:05:01;101070.88;;;6.15
72278;BMP280;61204;49.980;8.358;2023-02-01T00:07:26;101071.81;;;6.18
72278;BMP280;61204;49.980;8.358;2023-02-01T00:09:54;101052.03;;;6.17
72278;BMP280;61204;49.980;8.358;2023-02-01T00:12:19;101060.41;;;6.27
72278;BMP280;61204;49.980;8.358;2023-02-01T00:14:45;101039.47;;;6.14
72278;BMP280;61204;49.980;8.358;2023-02-01T00:17:11;101025.91;;;6.01
72278;BMP280;61204;49.980;8.358;2023-02-01T00:19:36;101042.78;;;5.99
72278;BMP280;61204;49.980;8.358;2023-02-01T00:22:02;101025.84;;;5.93
72278;BMP280;61204;49.980;8.358;2023-02-01T00:24:27;101023.06;;;5.86
72278;BMP280;61204;49.980;8.358;2023-02-01T00:26:53;101022.88;;;5.84
72278;BMP280;61204;49.980;8.358;2023-02-01T00:29:19;101014.78;;;5.91
72278;BMP280;61204;49.980;8.358;2023-02-01T00:31:45;101020.56;;;5.88
72278;BMP280;61204;49.980;8.358;2023-02-01T00:34:11;101009.38;;;5.78
72278;BMP280;61204;49.980;8.358;2023-02-01T00:36:40;101006.81;;;5.72
72278;BMP280;61204;49.980;8.358;2023-02-01T00:39:07;101018.19;;;5.71
72278;BMP280;61204;49.980;8.358;2023-02-01T00:41:33;101005.53;;;5.73
72278;BMP280;61204;49.980;8.358;2023-02-01T00:43:59;100996.50;;;5.78
72278;BMP280;61204;49.980;8.358;2023-02-01T00:46:26;101014.28;;;5.79
72278;BMP280;61204;49.980;8.358;2023-02-01T00:48:52;101017.22;;;5.82
72278;BMP280;61204;49.980;8.358;2023-02-01T00:51:19;101017.03;;;5.79
72278;BMP280;61204;49.980;8.358;2023-02-01T00:53:51;101010.00;;;5.84
72278;BMP280;61204;49.980;8.358;2023-02-01T00:56:17;101016.47;;;5.81
72278;BMP280;61204;49.980;8.358;2023-02-01T00:58:43;101017.03;;;5.79
72278;BMP280;61204;49.980;8.358;2023-02-01T01:01:13;101019.41;;;5.83
72278;BMP280;61204;49.980;8.358;2023-02-01T01:03:43;101012.72;;;5.84
72278;BMP280;61204;49.980;8.358;2023-02-01T01:06:23;101017.50;;;5.91
72278;BMP280;61204;49.980;8.358;2023-02-01T01:08:52;101031.88;;;5.99
72278;BMP280;61204;49.980;8.358;2023-02-01T01:11:21;101027.66;;;5.91
72278;BMP280;61204;49.980;8.358;2023-02-01T01:13:51;101018.75;;;5.90
72278;BMP280;61204;49.980;8.358;2023-02-01T01:16:19;101018.66;;;5.83
72278;BMP280;61204;49.980;8.358;2023-02-01T01:18:47;101016.63;;;5.75
72278;BMP280;61204;49.980;8.358;2023-02-01T01:21:14;101001.59;;;5.82
72278;BMP280;61204;49.980;8.358;2023-02-01T01:23:41;100995.31;;;5.87
72278;BMP280;61204;49.980;8.358;2023-02-01T01:26:08;100993.16;;;5.93
72278;BMP280;61204;49.980;8.358;2023-02-01T01:28:42;100997.88;;;5.93
72278;BMP280;61204;49.980;8.358;2023-02-01T01:31:11;100986.09;;;5.90
72278;BMP280;61204;49.980;8.358;2023-02-01T01:33:39;100994.44;;;5.92
72278;BMP280;61204;49.980;8.358;2023-02-01T01:36:06;100983.53;;;5.92
72278;BMP280;61204;49.980;8.358;2023-02-01T01:38:35;100983.91;;;5.89
72278;BMP280;61204;49.980;8.358;2023-02-01T01:41:00;100980.28;;;5.94
72278;BMP280;61204;49.980;8.358;2023-02-01T01:43:44;100982.28;;;5.93
72278;BMP280;61204;49.980;8.358;2023-02-01T01:46:15;100974.84;;;5.94
72278;BMP280;61204;49.980;8.358;2023-02-01T01:48:42;100962.72;;;5.95
72278;BMP280;61204;49.980;8.358;2023-02-01T01:51:09;100952.19;;;5.91
72278;BMP280;61204;49.980;8.358;2023-02-01T01:53:51;100961.91;;;5.87
72278;BMP280;61204;49.980;8.358;2023-02-01T01:56:42;100955.88;;;5.80
72278;BMP280;61204;49.980;8.358;2023-02-01T01:59:16;100943.56;;;5.79
72278;BMP280;61204;49.980;8.358;2023-02-01T02:01:42;100945.00;;;5.80
72278;BMP280;61204;49.980;8.358;2023-02-01T02:04:08;100944.28;;;5.80
72278;BMP280;61204;49.980;8.358;2023-02-01T02:09:28;100922.25;;;5.70
72278;BMP280;61204;49.980;8.358;2023-02-01T02:11:54;100906.97;;;5.67
72278;BMP280;61204;49.980;8.358;2023-02-01T02:14:20;100897.38;;;5.66
72278;BMP280;61204;49.980;8.358;2023-02-01T02:16:55;100888.47;;;5.66
72278;BMP280;61204;49.980;8.358;2023-02-01T02:31:58;100887.53;;;5.63
72278;BMP280;61204;49.980;8.358;2023-02-01T02:37:47;100889.00;;;5.64
72278;BMP280;61204;49.980;8.358;2023-02-01T02:40:29;100888.63;;;5.60
72278;BMP280;61204;49.980;8.358;2023-02-01T02:46:29;100878.13;;;5.64
72278;BMP280;61204;49.980;8.358;2023-02-01T02:49:45;100879.59;;;5.65
72278;BMP280;61204;49.980;8.358;2023-02-01T02:52:42;100870.88;;;5.67
72278;BMP280;61204;49.980;8.358;2023-02-01T02:55:35;100859.09;;;5.64
72278;BMP280;61204;49.980;8.358;2023-02-01T02:58:05;100853.09;;;5.66
72278;BMP280;61204;49.980;8.358;2023-02-01T03:00:52;100858.88;;;5.62
72278;BMP280;61204;49.980;8.358;2023-02-01T03:03:40;100851.84;;;5.67
72278;BMP280;61204;49.980;8.358;2023-02-01T03:06:25;100858.00;;;5.67
72278;BMP280;61204;49.980;8.358;2023-02-01T03:08:53;100856.94;;;5.70
72278;BMP280;61204;49.980;8.358;2023-02-01T03:11:23;100855.50;;;5.69
72278;BMP280;61204;49.980;8.358;2023-02-01T03:14:09;100848.94;;;5.65
72278;BMP280;61204;49.980;8.358;2023-02-01T03:16:50;100863.44;;;5.67
72278;BMP280;61204;49.980;8.358;2023-02-01T03:19:27;100863.84;;;5.71
72278;BMP280;61204;49.980;8.358;2023-02-01T03:22:06;100865.66;;;5.69
72278;BMP280;61204;49.980;8.358;2023-02-01T03:24:41;100867.72;;;5.76
72278;BMP280;61204;49.980;8.358;2023-02-01T03:30:32;100867.34;;;5.79
72278;BMP280;61204;49.980;8.358;2023-02-01T03:33:11;100859.59;;;5.84
72278;BMP280;61204;49.980;8.358;2023-02-01T03:38:55;100867.75;;;5.84
72278;BMP280;61204;49.980;8.358;2023-02-01T03:44:12;100849.44;;;5.84
72278;BMP280;61204;49.980;8.358;2023-02-01T03:49:33;100850.06;;;5.69
72278;BMP280;61204;49.980;8.358;2023-02-01T03:52:05;100850.78;;;5.70
72278;BMP280;61204;49.980;8.358;2023-02-01T03:54:42;100852.06;;;5.69
72278;BMP280;61204;49.980;8.358;2023-02-01T03:57:11;100841.69;;;5.67
72278;BMP280;61204;49.980;8.358;2023-02-01T03:59:41;100842.75;;;5.64
72278;BMP280;61204;49.980;8.358;2023-02-01T04:02:10;100841.28;;;5.63
72278;BMP280;61204;49.980;8.358;2023-02-01T04:04:36;100839.84;;;5.62
72278;BMP280;61204;49.980;8.358;2023-02-01T04:07:01;100846.00;;;5.63
72278;BMP280;61204;49.980;8.358;2023-02-01T04:09:27;100848.06;;;5.70
72278;BMP280;61204;49.980;8.358;2023-02-01T04:11:55;100848.94;;;5.65
72278;BMP280;61204;49.980;8.358;2023-02-01T04:14:20;100857.09;;;5.65
72278;BMP280;61204;49.980;8.358;2023-02-01T04:16:46;100866.38;;;5.69
72278;BMP280;61204;49.980;8.358;2023-02-01T04:19:11;100867.84;;;5.70
72278;BMP280;61204;49.980;8.358;2023-02-01T04:21:39;100868.22;;;5.74
72278;BMP280;61204;49.980;8.358;2023-02-01T04:24:16;100869.31;;;5.79
72278;BMP280;61204;49.980;8.358;2023-02-01T04:26:41;100866.09;;;5.80
72278;BMP280;61204;49.980;8.358;2023-02-01T04:29:08;100866.09;;;5.80
72278;BMP280;61204;49.980;8.358;2023-02-01T04:31:35;100861.91;;;5.79
72278;BMP280;61204;49.980;8.358;2023-02-01T04:34:01;100864.25;;;5.75
72278;BMP280;61204;49.980;8.358;2023-02-01T04:36:26;100872.66;;;5.85
72278;BMP280;61204;49.980;8.358;2023-02-01T04:38:52;100882.31;;;5.94
72278;BMP280;61204;49.980;8.358;2023-02-01T04:41:18;100894.09;;;5.89
72278;BMP280;61204;49.980;8.358;2023-02-01T04:43:45;100895.16;;;5.86
72278;BMP280;61204;49.980;8.358;2023-02-01T04:46:16;100889.31;;;5.82
72278;BMP280;61204;49.980;8.358;2023-02-01T04:48:41;100898.19;;;5.82
72278;BMP280;61204;49.980;8.358;2023-02-01T04:51:07;100901.72;;;5.90
72278;BMP280;61204;49.980;8.358;2023-02-01T04:53:34;100900.06;;;5.87
72278;BMP280;61204;49.980;8.358;2023-02-01T04:55:59;100908.97;;;5.88
72278;BMP280;61204;49.980;8.358;2023-02-01T04:58:25;100902.09;;;5.94
72278;BMP280;61204;49.980;8.358;2023-02-01T05:00:50;100897.19;;;5.93
72278;BMP280;61204;49.980;8.358;2023-02-01T05:03:16;100900.13;;;5.95
72278;BMP280;61204;49.980;8.358;2023-02-01T05:05:46;100890.09;;;5.90
72278;BMP280;61204;49.980;8.358;2023-02-01T05:08:13;100904.63;;;5.92
72278;BMP280;61204;49.980;8.358;2023-02-01T05:10:39;100913.91;;;5.97
72278;BMP280;61204;49.980;8.358;2023-02-01T05:13:05;100903.03;;;5.97
72278;BMP280;61204;49.980;8.358;2023-02-01T05:15:50;100901.97;;;6.00
72278;BMP280;61204;49.980;8.358;2023-02-01T05:18:18;100908.13;;;6.00
72278;BMP280;61204;49.980;8.358;2023-02-01T05:20:43;100901.63;;;6.03
72278;BMP280;61204;49.980;8.358;2023-02-01T05:23:09;100911.25;;;6.04
72278;BMP280;61204;49.980;8.358;2023-02-01T05:25:34;100904.34;;;6.03
72278;BMP280;61204;49.980;8.358;2023-02-01T05:28:00;100910.84;;;6.00
72278;BMP280;61204;49.980;8.358;2023-02-01T05:30:25;100905.06;;;6.04
72278;BMP280;61204;49.980;8.358;2023-02-01T05:32:53;100911.81;;;6.11
72278;BMP280;61204;49.980;8.358;2023-02-01T05:35:18;100896.91;;;6.04
72278;BMP280;61204;49.980;8.358;2023-02-01T05:37:45;100904.69;;;6.00
72278;BMP280;61204;49.980;8.358;2023-02-01T05:40:10;100904.44;;;5.90
72278;BMP280;61204;49.980;8.358;2023-02-01T05:42:36;100916.59;;;5.89
72278;BMP280;61204;49.980;8.358;2023-02-01T05:45:02;100921.31;;;5.89
72278;BMP280;61204;49.980;8.358;2023-02-01T05:47:30;100913.06;;;5.81
72278;BMP280;61204;49.980;8.358;2023-02-01T05:49:56;100908.91;;;5.80
72278;BMP280;61204;49.980;8.358;2023-02-01T05:52:21;100908.56;;;5.84
72278;BMP280;61204;49.980;8.358;2023-02-01T05:54:47;100920.69;;;5.83
72278;BMP280;61204;49.980;8.358;2023-02-01T05:57:13;100929.56;;;5.75
72278;BMP280;61204;49.980;8.358;2023-02-01T05:59:39;100926.09;;;5.75
72278;BMP280;61204;49.980;8.358;2023-02-01T06:02:09;100931.13;;;5.71
72278;BMP280;61204;49.980;8.358;2023-02-01T06:04:36;100928.22;;;5.69
72278;BMP280;61204;49.980;8.358;2023-02-01T06:07:02;100933.06;;;5.63
72278;BMP280;61204;49.980;8.358;2023-02-01T06:09:28;100917.81;;;5.60
72278;BMP280;61204;49.980;8.358;2023-02-01T06:11:53;100922.13;;;5.55
72278;BMP280;61204;49.980;8.358;2023-02-01T06:14:19;100929.69;;;5.49
72278;BMP280;61204;49.980;8.358;2023-02-01T06:16:45;100930.03;;;5.45
72278;BMP280;61204;49.980;8.358;2023-02-01T06:19:13;100933.28;;;5.44
72278;BMP280;61204;49.980;8.358;2023-02-01T06:21:38;100951.97;;;5.47
72278;BMP280;61204;49.980;8.358;2023-02-01T06:24:04;100942.75;;;5.50
72278;BMP280;61204;49.980;8.358;2023-02-01T06:26:31;100938.75;;;5.51
72278;BMP280;61204;49.980;8.358;2023-02-01T06:28:59;100949.53;;;5.57
72278;BMP280;61204;49.980;8.358;2023-02-01T06:31:24;100962.06;;;5.60
72278;BMP280;61204;49.980;8.358;2023-02-01T06:33:50;100958.53;;;5.52
72278;BMP280;61204;49.980;8.358;2023-02-01T06:36:16;100959.81;;;5.51
72278;BMP280;61204;49.980;8.358;2023-02-01T06:38:43;100956.81;;;5.62
72278;BMP280;61204;49.980;8.358;2023-02-01T06:41:11;100967.38;;;5.66
72278;BMP280;61204;49.980;8.358;2023-02-01T06:43:37;100968.81;;;5.67
72278;BMP280;61204;49.980;8.358;2023-02-01T06:46:03;100962.06;;;5.60
72278;BMP280;61204;49.980;8.358;2023-02-01T06:48:32;100972.94;;;5.60
72278;BMP280;61204;49.980;8.358;2023-02-01T06:51:01;100964.19;;;5.54
72278;BMP280;61204;49.980;8.358;2023-02-01T06:53:26;100964.44;;;5.64
72278;BMP280;61204;49.980;8.358;2023-02-01T06:55:55;100976.34;;;5.74
72278;BMP280;61204;49.980;8.358;2023-02-01T06:58:27;100982.31;;;5.72
72278;BMP280;61204;49.980;8.358;2023-02-01T07:00:57;100972.53;;;5.77
72278;BMP280;61204;49.980;8.358;2023-02-01T07:03:23;100968.00;;;5.72
72278;BMP280;61204;49.980;8.358;2023-02-01T07:05:49;100979.78;;;5.74
72278;BMP280;61204;49.980;8.358;2023-02-01T07:08:14;100992.72;;;5.82
72278;BMP280;61204;49.980;8.358;2023-02-01T07:10:42;100985.91;;;5.88
72278;BMP280;61204;49.980;8.358;2023-02-01T07:13:08;100988.31;;;5.78
72278;BMP280;61204;49.980;8.358;2023-02-01T07:15:33;100977.78;;;5.75
72278;BMP280;61204;49.980;8.358;2023-02-01T07:17:59;100968.81;;;5.67
72278;BMP280;61204;49.980;8.358;2023-02-01T07:20:24;100975.94;;;5.70
72278;BMP280;61204;49.980;8.358;2023-02-01T07:22:54;100972.28;;;5.67
72278;BMP280;61204;49.980;8.358;2023-02-01T07:25:21;100977.84;;;5.83
72278;BMP280;61204;49.980;8.358;2023-02-01T07:27:47;100977.72;;;5.88
72278;BMP280;61204;49.980;8.358;2023-02-01T07:30:13;100974.28;;;5.88
72278;BMP280;61204;49.980;8.358;2023-02-01T07:32:38;100984.56;;;5.82
72278;BMP280;61204;49.980;8.358;2023-02-01T07:35:04;100984.94;;;5.86
72278;BMP280;61204;49.980;8.358;2023-02-01T07:37:30;100995.25;;;6.00
72278;BMP280;61204;49.980;8.358;2023-02-01T07:39:57;100999.75;;;5.98
72278;BMP280;61204;49.980;8.358;2023-02-01T07:42:23;100983.97;;;6.25
72278;BMP280;61204;49.980;8.358;2023-02-01T07:44:51;101011.53;;;6.50
72278;BMP280;61204;49.980;8.358;2023-02-01T07:47:16;101020.88;;;6.62
72278;BMP280;61204;49.980;8.358;2023-02-01T07:49:42;101042.38;;;6.73
72278;BMP280;61204;49.980;8.358;2023-02-01T07:52:07;101033.00;;;6.82
72278;BMP280;61204;49.980;8.358;2023-02-01T07:54:33;101045.38;;;6.91
72278;BMP280;61204;49.980;8.358;2023-02-01T07:56:58;101050.97;;;7.29
72278;BMP280;61204;49.980;8.358;2023-02-01T07:59:24;101050.50;;;7.46
72278;BMP280;61204;49.980;8.358;2023-02-01T08:01:49;101057.78;;;7.66
72278;BMP280;61204;49.980;8.358;2023-02-01T08:04:14;101043.97;;;7.79
72278;BMP280;61204;49.980;8.358;2023-02-01T08:06:40;101062.56;;;7.88
72278;BMP280;61204;49.980;8.358;2023-02-01T08:09:06;101068.94;;;8.06
72278;BMP280;61204;49.980;8.358;2023-02-01T08:11:36;101073.66;;;8.21
72278;BMP280;61204;49.980;8.358;2023-02-01T08:14:03;101066.53;;;8.26
72278;BMP280;61204;49.980;8.358;2023-02-01T08:16:30;101073.13;;;8.23
72278;BMP280;61204;49.980;8.358;2023-02-01T08:18:56;101086.16;;;8.47
72278;BMP280;61204;49.980;8.358;2023-02-01T08:21:23;101088.41;;;8.26
72278;BMP280;61204;49.980;8.358;2023-02-01T08:23:53;101087.84;;;7.97
72278;BMP280;61204;49.980;8.358;2023-02-01T08:26:20;101094.38;;;7.94
72278;BMP280;61204;49.980;8.358;2023-02-01T08:28:52;101098.56;;;7.79
72278;BMP280;61204;49.980;8.358;2023-02-01T08:31:22;101096.38;;;7.78
72278;BMP280;61204;49.980;8.358;2023-02-01T08:33:51;101098.78;;;7.97
72278;BMP280;61204;49.980;8.358;2023-02-01T08:36:21;101102.06;;;8.56
72278;BMP280;61204;49.980;8.358;2023-02-01T08:38:48;101110.88;;;8.95
72278;BMP280;61204;49.980;8.358;2023-02-01T08:41:15;101094.91;;;9.16
72278;BMP280;61204;49.980;8.358;2023-02-01T08:43:45;101101.47;;;9.21
72278;BMP280;61204;49.980;8.358;2023-02-01T08:46:12;101109.88;;;9.08
72278;BMP280;61204;49.980;8.358;2023-02-01T08:48:39;101111.50;;;9.18
72278;BMP280;61204;49.980;8.358;2023-02-01T08:51:08;101113.38;;;9.08
72278;BMP280;61204;49.980;8.358;2023-02-01T08:53:37;101117.41;;;8.99
72278;BMP280;61204;49.980;8.358;2023-02-01T08:56:06;101119.97;;;8.97
72278;BMP280;61204;49.980;8.358;2023-02-01T08:58:32;101100.53;;;8.78
72278;BMP280;61204;49.980;8.358;2023-02-01T09:01:02;101108.16;;;8.87
72278;BMP280;61204;49.980;8.358;2023-02-01T09:03:30;101110.56;;;9.31
72278;BMP280;61204;49.980;8.358;2023-02-01T09:06:00;101116.16;;;8.93
72278;BMP280;61204;49.980;8.358;2023-02-01T09:08:29;101110.22;;;8.64
72278;BMP280;61204;49.980;8.358;2023-02-01T09:11:05;101120.63;;;8.42
72278;BMP280;61204;49.980;8.358;2023-02-01T09:13:35;101123.56;;;8.14
72278;BMP280;61204;49.980;8.358;2023-02-01T09:16:01;101117.00;;;8.02
72278;BMP280;61204;49.980;8.358;2023-02-01T09:18:28;101113.16;;;7.97
72278;BMP280;61204;49.980;8.358;2023-02-01T09:20:53;101121.69;;;7.86
72278;BMP280;61204;49.980;8.358;2023-02-01T09:23:19;101135.34;;;7.78
72278;BMP280;61204;49.980;8.358;2023-02-01T09:25:47;101133.69;;;7.75
72278;BMP280;61204;49.980;8.358;2023-02-01T09:28:15;101142.47;;;7.81
72278;BMP280;61204;49.980;8.358;2023-02-01T09:30:41;101130.81;;;7.81
72278;BMP280;61204;49.980;8.358;2023-02-01T09:33:06;101154.28;;;7.84
72278;BMP280;61204;49.980;8.358;2023-02-01T09:35:32;101160.25;;;7.75
72278;BMP280;61204;49.980;8.358;2023-02-01T09:37:57;101154.13;;;7.89
72278;BMP280;61204;49.980;8.358;2023-02-01T09:40:23;101150.66;;;7.89
72278;BMP280;61204;49.980;8.358;2023-02-01T09:45:22;101163.94;;;7.85
72278;BMP280;61204;49.980;8.358;2023-02-01T09:47:53;101175.56;;;7.78
72278;BMP280;61204;49.980;8.358;2023-02-01T09:50:35;101170.50;;;7.82
72278;BMP280;61204;49.980;8.358;2023-02-01T09:53:05;101161.00;;;7.83
72278;BMP280;61204;49.980;8.358;2023-02-01T09:55:48;101178.84;;;7.84
72278;BMP280;61204;49.980;8.358;2023-02-01T10:00:58;101167.72;;;7.74
72278;BMP280;61204;49.980;8.358;2023-02-01T10:03:32;101171.03;;;7.80
72278;BMP280;61204;49.980;8.358;2023-02-01T10:06:16;101173.03;;;7.80
72278;BMP280;61204;49.980;8.358;2023-02-01T10:09:11;101163.38;;;7.79
72278;BMP280;61204;49.980;8.358;2023-02-01T10:21:13;101148.09;;;7.83
72278;BMP280;61204;49.980;8.358;2023-02-01T10:29:42;101153.75;;;7.93
72278;BMP280;61204;49.980;8.358;2023-02-01T10:32:16;101131.75;;;7.91
72278;BMP280;61204;49.980;8.358;2023-02-01T10:34:48;101133.00;;;7.90
72278;BMP280;61204;49.980;8.358;2023-02-01T10:37:32;101142.81;;;7.93
72278;BMP280;61204;49.980;8.358;2023-02-01T10:40:11;101138.06;;;7.94
72278;BMP280;61204;49.980;8.358;2023-02-01T10:42:43;101142.81;;;7.93
72278;BMP280;61204;49.980;8.358;2023-02-01T10:45:11;101136.06;;;7.94
72278;BMP280;61204;49.980;8.358;2023-02-01T10:47:50;101126.09;;;8.04
72278;BMP280;61204;49.980;8.358;2023-02-01T10:50:22;101117.34;;;8.06
72278;BMP280;61204;49.980;8.358;2023-02-01T11:05:59;101096.59;;;7.95
72278;BMP280;61204;49.980;8.358;2023-02-01T11:08:47;101073.66;;;7.90
72278;BMP280;61204;49.980;8.358;2023-02-01T11:11:22;101103.13;;;7.84
72278;BMP280;61204;49.980;8.358;2023-02-01T11:13:57;101092.22;;;7.77
72278;BMP280;61204;49.980;8.358;2023-02-01T11:16:39;101092.94;;;7.85
72278;BMP280;61204;49.980;8.358;2023-02-01T11:19:05;101088.56;;;7.89
72278;BMP280;61204;49.980;8.358;2023-02-01T11:21:34;101095.88;;;8.02
72278;BMP280;61204;49.980;8.358;2023-02-01T11:24:03;101091.84;;;7.88
72278;BMP280;61204;49.980;8.358;2023-02-01T11:26:48;101085.13;;;7.97
72278;BMP280;61204;49.980;8.358;2023-02-01T11:29:15;101079.66;;;7.89
72278;BMP280;61204;49.980;8.358;2023-02-01T11:31:53;101073.66;;;7.90
72278;BMP280;61204;49.980;8.358;2023-02-01T11:34:24;101072.19;;;8.05
72278;BMP280;61204;49.980;8.358;2023-02-01T11:36:58;101069.66;;;8.07
72278;BMP280;61204;49.980;8.358;2023-02-01T11:39:30;101078.72;;;8.17
72278;BMP280;61204;49.980;8.358;2023-02-01T11:42:15;101055.66;;;8.10
72278;BMP280;61204;49.980;8.358;2023-02-01T11:44:43;101072.75;;;8.11
72278;BMP280;61204;49.980;8.358;2023-02-01T11:47:22;101073.47;;;8.11
72278;BMP280;61204;49.980;8.358;2023-02-01T11:49:54;101052.34;;;8.04
72278;BMP280;61204;49.980;8.358;2023-02-01T11:58:36;101035.41;;;8.13
72278;BMP280;61204;49.980;8.358;2023-02-01T12:04:18;101062.00;;;8.21
72278;BMP280;61204;49.980;8.358;2023-02-01T12:23:59;101048.44;;;8.61
72278;BMP280;61204;49.980;8.358;2023-02-01T12:32:51;101045.94;;;8.55
72278;BMP280;61204;49.980;8.358;2023-02-01T12:35:56;101039.31;;;8.58
72278;BMP280;61204;49.980;8.358;2023-02-01T12:49:10;101019.47;;;9.06
72278;BMP280;61204;49.980;8.358;2023-02-01T12:51:45;101007.38;;;9.16
72278;BMP280;61204;49.980;8.358;2023-02-01T12:56:56;101012.09;;;9.23
72278;BMP280;61204;49.980;8.358;2023-02-01T12:59:42;101025.63;;;9.14
72278;BMP280;61204;49.980;8.358;2023-02-01T13:02:22;101019.84;;;9.02
72278;BMP280;61204;49.980;8.358;2023-02-01T13:07:55;101004.81;;;8.86
72278;BMP280;61204;49.980;8.358;2023-02-01T13:13:22;101006.41;;;8.89
72278;BMP280;61204;49.980;8.358;2023-02-01T13:16:14;101005.00;;;8.80
72278;BMP280;61204;49.980;8.358;2023-02-01T13:18:56;101017.09;;;8.62
72278;BMP280;61204;49.980;8.358;2023-02-01T13:21:36;101019.06;;;8.69
72278;BMP280;61204;49.980;8.358;2023-02-01T13:24:31;101006.78;;;8.85
72278;BMP280;61204;49.980;8.358;2023-02-01T13:27:05;101003.13;;;8.90
72278;BMP280;61204;49.980;8.358;2023-02-01T13:29:40;101010.72;;;8.99
72278;BMP280;61204;49.980;8.358;2023-02-01T13:35:41;101016.63;;;9.71
72278;BMP280;61204;49.980;8.358;2023-02-01T13:38:21;101016.56;;;10.21
72278;BMP280;61204;49.980;8.358;2023-02-01T13:43:53;101017.31;;;10.66
72278;BMP280;61204;49.980;8.358;2023-02-01T13:46:24;101008.78;;;11.15
72278;BMP280;61204;49.980;8.358;2023-02-01T13:48:52;100992.31;;;11.15
72278;BMP280;61204;49.980;8.358;2023-02-01T13:51:40;101018.75;;;10.67
72278;BMP280;61204;49.980;8.358;2023-02-01T13:54:27;101013.63;;;10.53
72278;BMP280;61204;49.980;8.358;2023-02-01T13:57:02;101007.50;;;9.93
72278;BMP280;61204;49.980;8.358;2023-02-01T14:05:01;101028.03;;;9.42
72278;BMP280;61204;49.980;8.358;2023-02-01T14:07:28;100998.53;;;9.25
72278;BMP280;61204;49.980;8.358;2023-02-01T14:09:53;101002.00;;;9.01
72278;BMP280;61204;49.980;8.358;2023-02-01T14:15:22;101011.34;;;8.90
72278;BMP280;61204;49.980;8.358;2023-02-01T14:17:51;100999.72;;;8.82
72278;BMP280;61204;49.980;8.358;2023-02-01T14:20:38;101002.97;;;8.81
72278;BMP280;61204;49.980;8.358;2023-02-01T14:23:09;100984.78;;;8.76
72278;BMP280;61204;49.980;8.358;2023-02-01T14:25:40;100979.09;;;8.81
72278;BMP280;61204;49.980;8.358;2023-02-01T14:28:11;100992.97;;;8.83
72278;BMP280;61204;49.980;8.358;2023-02-01T14:30:51;100992.41;;;8.85
72278;BMP280;61204;49.980;8.358;2023-02-01T14:33:22;100986.31;;;9.02
72278;BMP280;61204;49.980;8.358;2023-02-01T14:36:05;100973.31;;;9.10
72278;BMP280;61204;49.980;8.358;2023-02-01T14:38:37;101001.56;;;9.62
72278;BMP280;61204;49.980;8.358;2023-02-01T14:47:02;100972.00;;;9.11
72278;BMP280;61204;49.980;8.358;2023-02-01T14:52:38;100994.00;;;8.88
72278;BMP280;61204;49.980;8.358;2023-02-01T14:55:11;100973.81;;;8.83
72278;BMP280;61204;49.980;8.358;2023-02-01T14:57:46;100979.09;;;8.81
72278;BMP280;61204;49.980;8.358;2023-02-01T15:02:52;100974.38;;;8.82
72278;BMP280;61204;49.980;8.358;2023-02-01T15:05:23;100972.94;;;8.73
72278;BMP280;61204;49.980;8.358;2023-02-01T15:08:00;100962.63;;;8.64
72278;BMP280;61204;49.980;8.358;2023-02-01T15:10:52;100977.38;;;8.61
72278;BMP280;61204;49.980;8.358;2023-02-01T15:18:32;100994.13;;;8.65
72278;BMP280;61204;49.980;8.358;2023-02-01T15:21:01;100993.97;;;8.63
72278;BMP280;61204;49.980;8.358;2023-02-01T15:23:29;101000.31;;;8.65
72278;BMP280;61204;49.980;8.358;2023-02-01T15:25:55;100995.03;;;8.67
72278;BMP280;61204;49.980;8.358;2023-02-01T15:28:20;101002.50;;;8.67
72278;BMP280;61204;49.980;8.358;2023-02-01T15:30:54;101003.63;;;8.64
72278;BMP280;61204;49.980;8.358;2023-02-01T15:33:26;100998.16;;;8.64
72278;BMP280;61204;49.980;8.358;2023-02-01T15:36:39;100996.31;;;8.66
72278;BMP280;61204;49.980;8.358;2023-02-01T15:38:43;100998.88;;;8.64
72278;BMP280;61204;49.980;8.358;2023-02-01T15:41:28;100997.41;;;8.63
72278;BMP280;61204;49.980;8.358;2023-02-01T15:46:30;100997.59;;;8.58
72278;BMP280;61204;49.980;8.358;2023-02-01T15:48:57;100998.19;;;8.56
72278;BMP280;61204;49.980;8.358;2023-02-01T15:51:24;100996.31;;;8.59
72278;BMP280;61204;49.980;8.358;2023-02-01T15:53:59;101004.16;;;8.62
72278;BMP280;61204;49.980;8.358;2023-02-01T15:56:38;100995.25;;;8.54
72278;BMP280;61204;49.980;8.358;2023-02-01T15:59:14;100989.78;;;8.54
72278;BMP280;61204;49.980;8.358;2023-02-01T16:01:43;100989.41;;;8.58
72278;BMP280;61204;49.980;8.358;2023-02-01T16:04:25;100996.50;;;8.61
72278;BMP280;61204;49.980;8.358;2023-02-01T16:07:01;101001.44;;;8.55
72278;BMP280;61204;49.980;8.358;2023-02-01T16:09:36;100993.25;;;8.55
72278;BMP280;61204;49.980;8.358;2023-02-01T16:12:23;101004.00;;;8.53
72278;BMP280;61204;49.980;8.358;2023-02-01T16:15:06;101013.50;;;8.52
72278;BMP280;61204;49.980;8.358;2023-02-01T16:17:32;101002.56;;;8.52
72278;BMP280;61204;49.980;8.358;2023-02-01T16:19:57;101013.50;;;8.52
72278;BMP280;61204;49.980;8.358;2023-02-01T16:22:23;101026.25;;;8.49
72278;BMP280;61204;49.980;8.358;2023-02-01T16:24:49;101009.50;;;8.45
72278;BMP280;61204;49.980;8.358;2023-02-01T16:27:17;101017.31;;;8.49
72278;BMP280;61204;49.980;8.358;2023-02-01T16:29:42;101016.44;;;8.46
72278;BMP280;61204;49.980;8.358;2023-02-01T16:32:13;101019.69;;;8.52
72278;BMP280;61204;49.980;8.358;2023-02-01T16:34:45;101022.44;;;8.44
72278;BMP280;61204;49.980;8.358;2023-02-01T16:37:16;101017.88;;;8.39
72278;BMP280;61204;49.980;8.358;2023-02-01T16:39:46;101007.50;;;8.46
72278;BMP280;61204;49.980;8.358;2023-02-01T16:42:13;101013.31;;;8.50
72278;BMP280;61204;49.980;8.358;2023-02-01T16:44:40;101003.72;;;8.33
72278;BMP280;61204;49.980;8.358;2023-02-01T16:47:11;101005.53;;;8.31
72278;BMP280;61204;49.980;8.358;2023-02-01T16:49:41;101005.88;;;8.27
72278;BMP280;61204;49.980;8.358;2023-02-01T16:52:12;101007.00;;;8.24
72278;BMP280;61204;49.980;8.358;2023-02-01T16:54:43;101009.56;;;8.14
72278;BMP280;61204;49.980;8.358;2023-02-01T16:57:13;101002.81;;;8.08
72278;BMP280;61204;49.980;8.358;2023-02-01T16:59:41;101007.56;;;8.07
72278;BMP280;61204;49.980;8.358;2023-02-01T17:02:18;100998.66;;;8.07